createdAt,value
2022-12-03T00:02:10.831Z,16.00
2022-12-03T00:04:37.328Z,17.45
2022-12-03T00:07:03.646Z,17.55
2022-12-03T00:09:29.932Z,19.23
2022-12-03T00:11:56.213Z,16.55
2022-12-03T00:14:22.494Z,18.58
2022-12-03T00:16:49.021Z,18.95
2022-12-03T00:19:15.398Z,19.02
2022-12-03T00:21:41.664Z,19.73
2022-12-03T00:24:08.246Z,18.65
2022-12-03T00:26:34.517Z,19.23
2022-12-03T00:29:00.796Z,17.75
2022-12-03T00:31:27.162Z,18.42
2022-12-03T00:33:53.580Z,17.15
2022-12-03T00:36:20.082Z,17.63
2022-12-03T00:38:46.453Z,19.55
2022-12-03T00:41:13.049Z,22.13
2022-12-03T00:43:39.357Z,20.58
2022-12-03T00:46:05.904Z,18.42
2022-12-03T00:48:32.249Z,20.63
2022-12-03T00:50:58.644Z,20.38
2022-12-03T00:53:24.936Z,19.17
2022-12-03T00:55:51.668Z,22.55
2022-12-03T00:58:18.336Z,24.23
2022-12-03T01:00:44.615Z,23.77
2022-12-03T01:03:10.864Z,21.10
2022-12-03T01:05:37.312Z,22.42
2022-12-03T01:08:03.735Z,24.38
2022-12-03T01:10:30.063Z,22.20
2022-12-03T01:12:56.432Z,22.08
2022-12-03T01:15:22.754Z,24.80
2022-12-03T01:17:49.010Z,23.73
2022-12-03T01:20:15.325Z,23.20
2022-12-03T01:22:41.649Z,20.38
2022-12-03T01:25:08.087Z,21.55
2022-12-03T01:27:34.342Z,21.05
2022-12-03T01:30:00.609Z,23.88
2022-12-03T01:32:26.903Z,20.42
2022-12-03T01:34:54.406Z,20.00
2022-12-03T01:37:22.670Z,21.63
2022-12-03T01:39:49.219Z,22.73
2022-12-03T01:42:17.370Z,19.63
2022-12-03T01:44:44.499Z,22.67
2022-12-03T01:47:13.604Z,20.13
2022-12-03T01:49:43.212Z,21.02
2022-12-03T01:52:12.100Z,17.67
2022-12-03T01:54:41.107Z,22.20
2022-12-03T01:57:14.373Z,22.23
2022-12-03T01:59:40.659Z,22.33
2022-12-03T02:02:23.849Z,23.75
2022-12-03T02:04:51.237Z,22.00
2022-12-03T02:07:19.044Z,21.58
2022-12-03T02:09:45.383Z,22.90
2022-12-03T02:12:12.298Z,22.80
2022-12-03T02:14:38.713Z,24.33
2022-12-03T02:17:04.996Z,20.33
2022-12-03T02:19:31.286Z,25.40
2022-12-03T02:22:05.500Z,23.15
2022-12-03T02:24:34.757Z,23.38
2022-12-03T02:27:01.053Z,24.48
2022-12-03T02:29:27.353Z,22.73
2022-12-03T02:31:53.784Z,23.85
2022-12-03T02:34:38.748Z,24.42
2022-12-03T02:37:06.228Z,21.48
2022-12-03T02:39:33.512Z,23.38
2022-12-03T02:42:18.294Z,25.27
2022-12-03T02:44:44.708Z,22.77
2022-12-03T02:47:11.154Z,23.70
2022-12-03T02:49:37.498Z,22.88
2022-12-03T02:52:03.858Z,22.17
2022-12-03T02:54:30.181Z,21.90
2022-12-03T02:56:56.463Z,23.77
2022-12-03T02:59:22.834Z,21.52
2022-12-03T03:01:49.386Z,20.40
2022-12-03T03:04:15.814Z,21.98
2022-12-03T03:06:42.153Z,22.30
2022-12-03T03:09:08.429Z,21.25
2022-12-03T03:11:34.731Z,23.48
2022-12-03T03:14:01.953Z,21.70
2022-12-03T03:16:28.326Z,23.23
2022-12-03T03:18:54.784Z,24.05
2022-12-03T03:21:21.412Z,21.65
2022-12-03T03:23:47.713Z,24.48
2022-12-03T03:26:14.461Z,23.92
2022-12-03T03:28:42.560Z,20.75
2022-12-03T03:31:10.866Z,18.42
2022-12-03T03:33:39.177Z,20.10
2022-12-03T03:36:06.441Z,21.15
2022-12-03T03:38:32.871Z,20.67
2022-12-03T03:41:01.392Z,18.52
2022-12-03T03:43:28.589Z,20.60
2022-12-03T03:45:55.458Z,20.58
2022-12-03T03:48:22.347Z,21.48
2022-12-03T03:50:49.451Z,18.73
2022-12-03T03:53:16.317Z,20.45
2022-12-03T03:55:42.710Z,19.52
2022-12-03T03:58:09.041Z,19.08
2022-12-03T04:00:35.825Z,20.75
2022-12-03T04:03:03.570Z,20.40
2022-12-03T04:05:29.945Z,17.23
2022-12-03T04:07:56.265Z,18.60
2022-12-03T04:10:41.190Z,16.73
2022-12-03T04:13:07.497Z,18.42
2022-12-03T04:15:33.953Z,18.33
2022-12-03T04:18:18.944Z,19.38
2022-12-03T04:20:45.227Z,19.40
2022-12-03T04:23:11.501Z,18.77
2022-12-03T04:26:00.738Z,17.83
2022-12-03T04:28:45.401Z,16.15
2022-12-03T04:31:30.323Z,15.77
2022-12-03T04:34:15.107Z,15.55
2022-12-03T04:36:41.392Z,17.10
2022-12-03T04:39:07.666Z,15.93
2022-12-03T04:41:33.954Z,15.82
2022-12-03T04:44:18.856Z,16.88
2022-12-03T04:46:45.148Z,16.38
2022-12-03T04:49:11.403Z,15.00
2022-12-03T04:51:37.743Z,16.20
2022-12-03T04:54:04.018Z,16.08
2022-12-03T04:56:30.388Z,17.17
2022-12-03T04:58:56.658Z,17.40
2022-12-03T05:01:23.044Z,16.23
2022-12-03T05:03:49.416Z,17.73
2022-12-03T05:06:15.687Z,17.13
2022-12-03T05:08:41.944Z,17.45
2022-12-03T05:11:08.228Z,17.63
2022-12-03T05:13:34.508Z,16.58
2022-12-03T05:16:00.849Z,16.27
2022-12-03T05:18:27.114Z,18.40
2022-12-03T05:20:53.857Z,17.65
2022-12-03T05:23:20.473Z,14.60
2022-12-03T05:25:46.867Z,18.23
2022-12-03T05:28:13.148Z,17.58
2022-12-03T05:30:39.482Z,16.70
2022-12-03T05:33:05.914Z,14.93
2022-12-03T05:35:32.198Z,16.52
2022-12-03T05:37:58.487Z,15.35
2022-12-03T05:40:25.029Z,14.15
2022-12-03T05:42:54.105Z,16.08
2022-12-03T05:45:21.721Z,16.40
2022-12-03T05:47:48.127Z,15.70
2022-12-03T05:50:14.824Z,13.23
2022-12-03T05:52:41.115Z,15.57
2022-12-03T05:55:07.836Z,14.27
2022-12-03T05:57:34.161Z,15.45
2022-12-03T06:00:00.455Z,16.33
2022-12-03T06:02:26.859Z,16.55
2022-12-03T06:04:53.527Z,13.55
2022-12-03T06:07:20.083Z,15.27
2022-12-03T06:09:46.397Z,13.05
2022-12-03T06:12:12.672Z,14.50
2022-12-03T06:14:38.972Z,14.32
2022-12-03T06:17:05.373Z,12.73
2022-12-03T06:19:31.640Z,14.80
2022-12-03T06:21:57.958Z,13.75
2022-12-03T06:24:24.237Z,12.63
2022-12-03T06:26:50.580Z,12.73
2022-12-03T06:29:16.917Z,13.43
2022-12-03T06:31:43.322Z,12.02
2022-12-03T06:34:09.686Z,11.27
2022-12-03T06:36:35.970Z,13.93
2022-12-03T06:39:02.251Z,12.68
2022-12-03T06:41:28.530Z,12.02
2022-12-03T06:43:54.803Z,11.25
2022-12-03T06:46:21.231Z,12.43
2022-12-03T06:48:47.578Z,12.27
2022-12-03T06:51:13.861Z,11.50
2022-12-03T06:53:40.128Z,10.88
2022-12-03T06:56:06.561Z,10.90
2022-12-03T06:58:32.849Z,10.02
2022-12-03T07:00:59.162Z,9.90
2022-12-03T07:03:25.550Z,8.88
2022-12-03T07:05:51.882Z,12.65
2022-12-03T07:08:18.198Z,10.40
2022-12-03T07:10:44.555Z,10.05
2022-12-03T07:13:10.853Z,10.18
2022-12-03T07:15:37.257Z,10.10
2022-12-03T07:18:03.548Z,8.48
2022-12-03T07:20:29.825Z,10.77
2022-12-03T07:22:56.097Z,9.30
2022-12-03T07:25:23.717Z,9.00
2022-12-03T07:27:50.501Z,11.45
2022-12-03T07:30:16.933Z,8.80
2022-12-03T07:32:43.247Z,8.25
2022-12-03T07:35:09.986Z,10.07
2022-12-03T07:37:36.463Z,9.35
2022-12-03T07:40:03.266Z,8.10
2022-12-03T07:42:29.551Z,10.55
2022-12-03T07:44:56.040Z,8.90
2022-12-03T07:47:22.548Z,10.05
2022-12-03T07:49:48.831Z,8.93
2022-12-03T07:52:15.128Z,8.30
2022-12-03T07:54:41.395Z,8.27
2022-12-03T07:57:07.680Z,7.43
2022-12-03T07:59:49.005Z,11.23
2022-12-03T08:02:20.966Z,7.80
2022-12-03T08:04:47.987Z,8.05
2022-12-03T08:07:14.269Z,8.32
2022-12-03T08:09:40.782Z,8.07
2022-12-03T08:12:14.621Z,8.90
2022-12-03T08:14:40.905Z,9.63
2022-12-03T08:17:10.899Z,10.07
2022-12-03T08:19:37.153Z,8.65
2022-12-03T08:22:10.237Z,10.18
2022-12-03T08:24:36.511Z,8.57
2022-12-03T08:27:05.321Z,9.10
2022-12-03T08:29:31.602Z,9.90
2022-12-03T08:31:58.286Z,8.02
2022-12-03T08:34:27.024Z,7.97
2022-12-03T08:36:57.889Z,11.40
2022-12-03T08:39:33.522Z,10.25
2022-12-03T08:42:37.544Z,8.55
2022-12-03T08:45:24.359Z,8.93
2022-12-03T08:47:50.693Z,10.35
2022-12-03T08:50:27.512Z,10.73
2022-12-03T08:52:54.797Z,11.48
2022-12-03T08:55:36.912Z,9.63
2022-12-03T08:58:16.178Z,11.98
2022-12-03T09:00:42.797Z,11.93
2022-12-03T09:03:12.809Z,10.95
2022-12-03T09:05:39.115Z,10.68
2022-12-03T09:08:05.441Z,12.43
2022-12-03T09:10:31.795Z,11.40
2022-12-03T09:12:58.156Z,10.77
2022-12-03T09:15:24.516Z,11.50
2022-12-03T09:17:50.889Z,11.60
2022-12-03T09:20:17.228Z,11.60
2022-12-03T09:22:43.527Z,11.13
2022-12-03T09:25:09.909Z,10.23
2022-12-03T09:27:36.224Z,10.77
2022-12-03T09:30:02.705Z,11.55
2022-12-03T09:32:29.013Z,11.48
2022-12-03T09:34:55.732Z,12.50
2022-12-03T09:37:22.358Z,10.73
2022-12-03T09:39:48.663Z,10.95
2022-12-03T09:42:15.417Z,11.20
2022-12-03T09:44:41.766Z,12.02
2022-12-03T09:47:09.095Z,13.05
2022-12-03T09:49:36.848Z,12.52
2022-12-03T09:52:04.120Z,14.25
2022-12-03T09:54:32.132Z,12.63
2022-12-03T09:57:00.031Z,14.05
2022-12-03T09:59:27.650Z,14.45
2022-12-03T10:01:54.232Z,14.20
2022-12-03T10:04:20.794Z,17.13
2022-12-03T10:06:47.625Z,15.15
2022-12-03T10:09:14.619Z,14.45
2022-12-03T10:11:40.949Z,15.82
2022-12-03T10:14:07.222Z,15.75
2022-12-03T10:16:35.913Z,16.75
2022-12-03T10:19:02.274Z,18.35
2022-12-03T10:21:34.546Z,17.30
2022-12-03T10:24:19.539Z,17.92
2022-12-03T10:26:46.494Z,19.27
2022-12-03T10:29:13.778Z,19.63
2022-12-03T10:31:40.472Z,17.08
2022-12-03T10:34:06.748Z,17.25
2022-12-03T10:36:33.226Z,19.52
2022-12-03T10:39:12.230Z,20.65
2022-12-03T10:41:39.457Z,20.58
2022-12-03T10:44:11.912Z,19.85
2022-12-03T10:46:38.387Z,20.17
2022-12-03T10:49:13.888Z,18.67
2022-12-03T10:51:40.377Z,19.00
2022-12-03T10:54:14.300Z,20.65
2022-12-03T10:56:40.814Z,19.05
2022-12-03T10:59:10.046Z,21.23
2022-12-03T11:01:36.720Z,20.30
2022-12-03T11:04:04.386Z,21.20
2022-12-03T11:06:31.988Z,24.92
2022-12-03T11:09:03.805Z,20.10
2022-12-03T11:11:33.336Z,20.92
2022-12-03T11:14:00.476Z,22.77
2022-12-03T11:16:39.070Z,19.45
2022-12-03T11:19:18.914Z,23.50
2022-12-03T11:22:03.289Z,19.92
2022-12-03T11:24:29.738Z,21.17
2022-12-03T11:26:56.021Z,21.95
2022-12-03T11:29:40.818Z,22.85
2022-12-03T11:32:07.106Z,21.15
2022-12-03T11:34:33.358Z,22.83
2022-12-03T11:37:11.802Z,23.55
2022-12-03T11:39:56.633Z,22.40
2022-12-03T11:42:26.047Z,22.08
2022-12-03T11:45:04.788Z,23.35
2022-12-03T11:47:32.633Z,21.45
2022-12-03T11:49:58.910Z,20.95
2022-12-03T11:52:32.222Z,24.08
2022-12-03T11:55:04.290Z,24.73
2022-12-03T11:57:32.964Z,25.08
2022-12-03T12:00:00.397Z,24.33
2022-12-03T12:02:26.790Z,26.08
2022-12-03T12:04:53.101Z,23.25
2022-12-03T12:07:35.462Z,24.45
2022-12-03T12:10:01.832Z,22.73
2022-12-03T12:12:29.986Z,23.20
2022-12-03T12:14:56.643Z,25.67
2022-12-03T12:17:49.164Z,25.00
2022-12-03T12:20:27.755Z,22.25
2022-12-03T12:22:54.858Z,26.25
2022-12-03T12:25:30.441Z,23.95
2022-12-03T12:27:56.944Z,24.42
2022-12-03T12:30:24.008Z,23.30
2022-12-03T12:32:51.966Z,21.10
2022-12-03T12:35:22.921Z,24.95
2022-12-03T12:37:56.644Z,20.15
2022-12-03T12:40:26.837Z,25.80
2022-12-03T12:42:54.271Z,24.83
2022-12-03T12:45:21.644Z,23.23
2022-12-03T12:47:48.422Z,22.90
2022-12-03T12:50:15.356Z,23.42
2022-12-03T12:52:53.189Z,21.98
2022-12-03T12:55:19.998Z,22.70
2022-12-03T12:57:46.416Z,23.10
2022-12-03T13:00:20.347Z,22.88
2022-12-03T13:02:51.003Z,23.55
2022-12-03T13:05:17.669Z,24.08
2022-12-03T13:07:44.714Z,23.67
2022-12-03T13:10:20.380Z,22.60
2022-12-03T13:12:46.769Z,22.40
2022-12-03T13:15:31.856Z,23.80
2022-12-03T13:17:58.146Z,26.52
2022-12-03T13:20:24.504Z,23.33
2022-12-03T13:22:50.834Z,26.67
2022-12-03T13:25:57.272Z,25.10
2022-12-03T13:28:18.837Z,26.05
2022-12-03T13:30:45.376Z,25.67
2022-12-03T13:33:19.865Z,26.25
2022-12-03T13:35:46.558Z,25.33
2022-12-03T13:38:15.346Z,26.25
2022-12-03T13:40:41.849Z,26.92
2022-12-03T13:43:15.209Z,26.48
2022-12-03T13:45:43.472Z,26.80
2022-12-03T13:48:22.877Z,25.48
2022-12-03T13:50:49.454Z,27.10
2022-12-03T13:53:36.667Z,25.30
2022-12-03T13:56:02.905Z,24.30
2022-12-03T13:58:29.184Z,25.63
2022-12-03T14:00:55.501Z,23.25
2022-12-03T14:03:23.203Z,23.92
2022-12-03T14:06:20.399Z,25.70
2022-12-03T14:08:46.697Z,31.48
2022-12-03T14:11:31.444Z,26.05
2022-12-03T14:13:57.742Z,24.48
2022-12-03T14:16:24.417Z,25.58
2022-12-03T14:18:50.718Z,25.40
2022-12-03T14:21:16.987Z,27.42
2022-12-03T14:23:43.266Z,25.30
2022-12-03T14:26:09.546Z,22.25
2022-12-03T14:28:35.834Z,23.98
2022-12-03T14:31:02.137Z,24.45
2022-12-03T14:33:28.431Z,26.63
2022-12-03T14:35:55.982Z,24.13
2022-12-03T14:38:22.352Z,23.48
2022-12-03T14:40:48.640Z,24.80
2022-12-03T14:43:14.928Z,22.85
2022-12-03T14:45:41.317Z,21.55
2022-12-03T14:48:07.809Z,27.48
2022-12-03T14:50:34.180Z,26.00
2022-12-03T14:53:00.494Z,25.55
2022-12-03T14:55:26.805Z,22.15
2022-12-03T14:57:53.110Z,23.63
2022-12-03T15:00:19.622Z,23.92
2022-12-03T15:02:45.946Z,23.20
2022-12-03T15:05:12.330Z,23.63
2022-12-03T15:07:39.434Z,24.85
2022-12-03T15:10:06.757Z,24.17
2022-12-03T15:12:33.139Z,23.17
2022-12-03T15:14:59.561Z,21.42
2022-12-03T15:17:31.743Z,22.33
2022-12-03T15:19:58.529Z,24.92
2022-12-03T15:22:24.797Z,23.45
2022-12-03T15:24:51.085Z,25.80
2022-12-03T15:27:17.388Z,24.73
2022-12-03T15:29:43.756Z,25.90
2022-12-03T15:32:10.028Z,23.05
2022-12-03T15:34:36.394Z,24.58
2022-12-03T15:37:02.670Z,23.48
2022-12-03T15:39:29.525Z,25.95
2022-12-03T15:41:55.788Z,27.20
2022-12-03T15:44:22.079Z,23.83
2022-12-03T15:46:48.360Z,26.67
2022-12-03T15:49:14.687Z,23.58
2022-12-03T15:51:40.993Z,25.55
2022-12-03T15:54:07.366Z,27.48
2022-12-03T15:56:37.336Z,25.88
2022-12-03T15:59:03.758Z,21.40
2022-12-03T16:01:30.106Z,25.38
2022-12-03T16:03:56.433Z,26.35
2022-12-03T16:06:22.705Z,25.23
2022-12-03T16:08:48.990Z,26.10
2022-12-03T16:11:15.255Z,22.95
2022-12-03T16:13:41.534Z,28.20
2022-12-03T16:16:07.856Z,26.10
2022-12-03T16:18:34.203Z,24.92
2022-12-03T16:21:00.512Z,28.88
2022-12-03T16:23:26.822Z,25.60
2022-12-03T16:25:53.163Z,25.23
2022-12-03T16:28:19.441Z,27.52
2022-12-03T16:30:45.780Z,28.52
2022-12-03T16:33:12.134Z,27.05
2022-12-03T16:35:38.482Z,27.75
2022-12-03T16:38:04.764Z,29.35
2022-12-03T16:40:31.088Z,28.15
2022-12-03T16:42:57.420Z,33.08
2022-12-03T16:45:29.693Z,35.45
2022-12-03T16:47:56.030Z,28.88
2022-12-03T16:50:29.440Z,29.20
2022-12-03T16:52:56.346Z,26.88
2022-12-03T16:55:22.633Z,26.90
2022-12-03T16:57:49.161Z,29.10
2022-12-03T17:00:15.753Z,28.27
2022-12-03T17:02:42.123Z,30.38
2022-12-03T17:05:08.619Z,29.42
2022-12-03T17:07:35.010Z,29.52
2022-12-03T17:10:01.463Z,30.75
2022-12-03T17:12:37.617Z,28.27
2022-12-03T17:15:14.118Z,30.27
2022-12-03T17:17:40.375Z,30.08
2022-12-03T17:20:08.157Z,29.60
2022-12-03T17:22:34.560Z,30.33
2022-12-03T17:25:00.943Z,31.50
2022-12-03T17:27:27.288Z,29.80
2022-12-03T17:29:53.817Z,29.35
2022-12-03T17:32:20.276Z,29.80
2022-12-03T17:34:46.594Z,31.17
2022-12-03T17:37:12.856Z,28.98
2022-12-03T17:39:39.137Z,30.73
2022-12-03T17:42:05.416Z,30.40
2022-12-03T17:44:31.680Z,30.92
2022-12-03T17:46:58.010Z,32.45
2022-12-03T17:49:29.924Z,31.20
2022-12-03T17:51:57.705Z,33.00
2022-12-03T17:54:23.990Z,32.13
2022-12-03T17:56:50.272Z,34.13
2022-12-03T17:59:16.632Z,33.42
2022-12-03T18:01:43.639Z,32.40
2022-12-03T18:04:10.383Z,36.83
2022-12-03T18:06:36.931Z,31.25
2022-12-03T18:09:03.792Z,33.42
2022-12-03T18:11:30.307Z,34.58
2022-12-03T18:13:56.662Z,31.77
2022-12-03T18:16:22.982Z,31.63
2022-12-03T18:18:53.636Z,32.30
2022-12-03T18:21:22.683Z,34.65
2022-12-03T18:23:48.975Z,30.42
2022-12-03T18:26:15.322Z,30.73
2022-12-03T18:28:41.630Z,36.33
2022-12-03T18:31:14.417Z,30.75
2022-12-03T18:33:40.733Z,32.72
2022-12-03T18:36:14.811Z,32.72
2022-12-03T18:38:41.379Z,36.78
2022-12-03T18:41:07.662Z,34.78
2022-12-03T18:43:33.981Z,31.00
2022-12-03T18:46:00.268Z,34.33
2022-12-03T18:48:26.550Z,37.20
2022-12-03T18:50:52.850Z,36.20
2022-12-03T18:53:19.302Z,31.40
2022-12-03T18:55:46.460Z,33.97
2022-12-03T18:58:12.872Z,33.72
2022-12-03T19:00:39.464Z,32.92
2022-12-03T19:03:06.233Z,33.33
2022-12-03T19:05:33.368Z,34.10
2022-12-03T19:07:59.927Z,34.38
2022-12-03T19:10:26.358Z,32.13
2022-12-03T19:12:52.688Z,33.92
2022-12-03T19:15:19.044Z,33.85
2022-12-03T19:17:49.264Z,33.20
2022-12-03T19:20:15.595Z,35.50
2022-12-03T19:22:41.870Z,36.33
2022-12-03T19:25:08.307Z,36.08
2022-12-03T19:27:34.640Z,32.63
2022-12-03T19:30:00.920Z,30.35
2022-12-03T19:32:27.196Z,31.35
2022-12-03T19:34:53.513Z,34.28
2022-12-03T19:37:19.772Z,32.70
2022-12-03T19:39:46.475Z,36.47
2022-12-03T19:42:12.734Z,30.88
2022-12-03T19:44:39.223Z,34.28
2022-12-03T19:47:05.759Z,33.45
2022-12-03T19:49:32.280Z,29.52
2022-12-03T19:51:58.545Z,32.17
2022-12-03T19:54:24.931Z,30.38
2022-12-03T19:56:51.220Z,29.10
2022-12-03T19:59:17.502Z,28.67
2022-12-03T20:01:44.075Z,26.08
2022-12-03T20:04:11.105Z,30.38
2022-12-03T20:06:38.899Z,30.25
2022-12-03T20:09:06.481Z,30.27
2022-12-03T20:11:33.244Z,28.08
2022-12-03T20:14:00.690Z,30.90
2022-12-03T20:16:27.664Z,29.83
2022-12-03T20:19:00.725Z,27.38
2022-12-03T20:21:28.776Z,28.65
2022-12-03T20:23:55.080Z,29.23
2022-12-03T20:26:21.544Z,30.30
2022-12-03T20:28:48.184Z,32.10
2022-12-03T20:31:16.052Z,28.90
2022-12-03T20:33:43.941Z,30.45
2022-12-03T20:36:11.041Z,26.50
2022-12-03T20:38:37.495Z,30.92
2022-12-03T20:41:04.896Z,27.20
2022-12-03T20:43:31.159Z,30.40
2022-12-03T20:46:02.594Z,27.08
2022-12-03T20:48:29.497Z,28.13
2022-12-03T20:50:55.777Z,29.75
2022-12-03T20:53:25.663Z,30.02
2022-12-03T20:55:56.254Z,33.22
2022-12-03T21:00:48.846Z,36.42
2022-12-03T21:03:15.154Z,31.05
2022-12-03T21:05:42.560Z,29.92
2022-12-03T21:08:08.944Z,30.92
2022-12-03T21:10:45.121Z,26.92
2022-12-03T21:13:15.529Z,29.52
2022-12-03T21:15:42.342Z,31.52
2022-12-03T21:18:10.115Z,30.33
2022-12-03T21:20:43.103Z,31.58
2022-12-03T21:23:09.498Z,27.50
2022-12-03T21:25:36.729Z,27.48
2022-12-03T21:28:06.987Z,28.67
2022-12-03T21:30:33.656Z,30.08
2022-12-03T21:33:00.040Z,26.65
2022-12-03T21:35:26.413Z,26.75
2022-12-03T21:37:52.760Z,25.05
2022-12-03T21:40:19.350Z,27.75
2022-12-03T21:42:45.735Z,25.33
2022-12-03T21:45:12.030Z,25.52
2022-12-03T21:47:38.370Z,24.95
2022-12-03T21:50:09.380Z,25.38
2022-12-03T21:52:35.660Z,24.95
2022-12-03T21:55:01.937Z,24.30
2022-12-03T21:57:28.280Z,24.52
2022-12-03T21:59:57.629Z,25.38
2022-12-03T22:02:24.039Z,24.00
2022-12-03T22:04:50.787Z,27.23
2022-12-03T22:07:17.116Z,25.75
2022-12-03T22:09:43.517Z,25.17
2022-12-03T22:12:09.865Z,25.63
2022-12-03T22:14:36.237Z,24.88
2022-12-03T22:17:02.521Z,25.85
2022-12-03T22:19:28.872Z,26.20
2022-12-03T22:21:55.215Z,26.52
2022-12-03T22:24:21.545Z,23.80
2022-12-03T22:26:47.842Z,24.05
2022-12-03T22:29:14.953Z,23.90
2022-12-03T22:31:41.238Z,24.80
2022-12-03T22:34:07.510Z,25.20
2022-12-03T22:36:33.795Z,24.67
2022-12-03T22:39:00.035Z,22.60
2022-12-03T22:41:26.319Z,25.25
2022-12-03T22:43:52.598Z,24.77
2022-12-03T22:46:19.006Z,23.38
2022-12-03T22:48:47.298Z,23.25
2022-12-03T22:51:23.926Z,26.48
2022-12-03T22:53:54.467Z,21.50
2022-12-03T22:58:48.558Z,22.23
2022-12-03T23:01:21.785Z,23.38
2022-12-03T23:03:48.341Z,22.88
2022-12-03T23:06:14.682Z,23.63
2022-12-03T23:08:41.145Z,22.00
2022-12-03T23:11:07.764Z,21.38
2022-12-03T23:13:34.051Z,21.27
2022-12-03T23:16:00.424Z,24.13
2022-12-03T23:18:26.905Z,22.45
2022-12-03T23:20:54.549Z,22.83
2022-12-03T23:23:21.784Z,22.20
2022-12-03T23:26:00.843Z,24.13
2022-12-03T23:28:27.777Z,21.10
2022-12-03T23:30:54.309Z,20.67
2022-12-03T23:33:20.625Z,23.33
2022-12-03T23:35:46.942Z,20.45
2022-12-03T23:38:13.226Z,22.27
2022-12-03T23:40:43.463Z,21.27
2022-12-03T23:43:12.877Z,21.42
2022-12-03T23:45:39.278Z,24.25
2022-12-03T23:48:05.744Z,23.20
2022-12-03T23:50:32.033Z,22.58
2022-12-03T23:52:58.754Z,21.63
2022-12-03T23:55:25.078Z,21.75
2022-12-03T23:57:51.370Z,20.90
